CYG weather

Corryong Airport
Victoria, Australia

Public forecast

Using degrees Celsius for public forecast. Weather courtesy of forecast.io.

METAR (pilot weather report)

Closest report is Albury Airport, 45.6 nm (84.5 km) W. Retrieved 2019/03/20 03:00 UTC (21 minutes ago):

YMAY 200300Z AUTO 09006KT 9999 // NCD 29/14 Q1013

TAF (pilot weather forecast)

Forecast is more than 12 hours old.

Closest forecast is Wagga Wagga City Airport, 64.5 nm (119.4 km) NNW. Retrieved 2018/05/25 18:03 UTC (10 months ago):

TAF YSWG 251649Z 2518/2608 07008KT CAVOK